Kezdőlap
METAR-TAF:

METAR-TAF

Repülőterek :

Mönchengladbach, Németország

földrajzi szélesség: 51-13-49N, földrajzi hosszúság: 006-30-16E, magasság: 38 m

Jelenlegi meteorológiai megfigyelések

A jelentés 46 perccel ezelõtt készült, 12:50 UTC
Északi szél 6 kt, észak-északnyugati és kelet-északkeleti között változik
Hőmérséklet 20°C
Páratartalom 60%
Légköri nyomás 1018 hPa
Látótávolság 10 km, vagy több
Szórványos felhőzet 3100 lábon

METAR: EDLN 191250Z 01006KT 330V060 9999 SCT031 20/12 Q1018

Idő: 15:36 (13:36 UTC)

Előrejelzés

A jelentés 2 órával és 36 perccel ezelõtt készült, 11:00 UTC
Az előrejelzés 19-én 12 óra UTC és 19-én 21 óra UTC között érvényes
Északi szél 7 kt
Látótávolság 10 km, vagy több
Kevés felhő 3000 lábon

TAF: EDLN 191100Z 1912/1921 36007KT 9999 FEW030

Meteorológiai megfigyelések és előrejelzések több, mint 4000 repülőtéren (METAR és TAF jelentéseket).

A térképen piros és sárga pontok jelzik az elérhető meteorológiai állomásokat.

Mozgassa az egeret a pont fölött, hogy megjelenjen az állomás neve.

Azután kattintson az időjárási megfigyelések és előrejelzések megtekintéséhez.

A térkép megváltoztatása: kattintson a fekete keresztel jelölt zöld gombra ráközelítéshez, a vonallal jelölt zöld gombra távolításhoz, vagy a zöld nyilakra a szomszédos térképek eléréséhez.


METAR-TAF: